Tucumcari ASC

2021-04-18 20:30:00

  • imperial
Date Time Air Temperature Relative Humidity Dewpoint Windchill Heat Index Wind Speed Wind Dir. Rain Solar Radiation Soil Temperature
2m 2m 3m 3m 10cm
US/Mountain F % F F F MPH deg in MJ/m^2 F
max avg avg
2021-04-17 20:40:00 44.8 41.2 22.6 40.6 44.8 7.6 8.3 6.7 69.6 69.8 0.00 0.0000000 56.6
2021-04-17 20:45:00 44.6 41.6 22.7 40.3 44.6 7.8 9.6 7.3 69.6 68.6 0.00 0.0000000 56.5
2021-04-17 20:50:00 44.4 42.3 22.9 40.7 44.4 6.5 10.5 7.9 79.2 66.1 0.00 0.0000000 56.4
2021-04-17 20:55:00 44.1 43.2 23.2 39.2 44.1 8.8 10.5 8.4 71.7 66.6 0.00 0.0000000 56.3
2021-04-17 21:00:00 43.9 44.2 23.5 39.1 43.9 8.5 10.6 8.5 64.3 62.9 0.00 0.0000000 56.2
2021-04-17 21:05:00 43.8 44.7 23.6 39.3 43.8 7.8 8.8 7.6 57.4 64.6 0.00 0.0000000 56.1
2021-04-17 21:10:00 43.8 45.2 23.9 39.6 43.8 7.1 9.0 7.1 67.5 65.6 0.00 0.0000000 56.0
2021-04-17 21:15:00 43.8 45.5 24.0 39.3 43.8 7.8 10.6 8.2 76.1 66.2 0.00 0.0000000 55.9
2021-04-17 21:20:00 43.8 45.9 24.3 39.6 43.8 7.1 9.9 7.8 50.1 69.0 0.00 0.0000000 55.8
2021-04-17 21:25:00 43.8 45.9 24.4 38.5 43.8 9.6 10.5 7.5 61.3 66.7 0.00 0.0000000 55.7
2021-04-17 21:30:00 43.9 46.1 24.5 39.6 43.9 7.4 9.4 7.4 60.6 62.9 0.00 0.0000000 55.6
2021-04-17 21:35:00 43.9 46.1 24.5 40.0 43.9 6.7 10.1 7.5 68.5 63.8 0.00 0.0000000 55.5
2021-04-17 21:40:00 43.9 46.3 24.6 40.2 43.9 6.3 8.1 6.5 64.4 62.0 0.00 0.0000000 55.4
2021-04-17 21:45:00 43.9 46.3 24.6 39.2 43.9 8.1 9.2 6.7 69.9 60.3 0.00 0.0000000 55.3
2021-04-17 21:50:00 43.9 46.3 24.6 39.8 43.9 7.1 9.4 7.3 67.3 64.6 0.00 0.0000000 55.2
2021-04-17 21:55:00 43.8 46.3 24.5 40.3 43.8 6.0 8.1 6.6 44.8 56.3 0.00 0.0000000 55.1
2021-04-17 22:00:00 43.9 46.3 24.6 39.8 43.9 7.1 8.7 6.0 50.4 56.6 0.00 0.0000000 55.1
2021-04-17 22:05:00 43.8 46.4 24.6 40.3 43.8 6.0 9.2 6.5 52.3 53.0 0.00 0.0000000 55.0
2021-04-17 22:10:00 43.9 46.3 24.6 41.3 43.9 4.6 7.2 5.4 49.5 44.9 0.00 0.0000000 54.9
2021-04-17 22:15:00 43.9 46.5 24.7 40.5 43.9 5.8 8.1 5.8 58.6 50.4 0.00 0.0000000 54.9
2021-04-17 22:20:00 43.9 46.5 24.7 40.4 43.9 6.0 8.0 5.6 63.7 47.0 0.00 0.0000000 54.8
2021-04-17 22:25:00 43.8 46.7 24.7 40.9 43.8 5.1 8.0 5.8 37.0 46.6 0.00 0.0000000 54.7
2021-04-17 22:30:00 43.9 46.7 24.8 40.7 43.9 5.5 7.6 6.1 38.1 49.2 0.00 0.0000000 54.7
2021-04-17 22:35:00 43.8 46.8 24.8 39.4 43.8 7.6 8.5 5.7 50.2 45.0 0.00 0.0000000 54.6
2021-04-17 22:40:00 43.6 47.1 24.7 40.3 43.6 5.6 7.6 6.0 42.2 51.7 0.00 0.0000000 54.6
2021-04-17 22:45:00 43.5 47.2 24.7 39.9 43.5 6.0 7.1 5.6 38.7 50.2 0.00 0.0000000 54.5
2021-04-17 22:50:00 43.5 47.3 24.8 39.5 43.5 6.7 6.9 5.6 63.7 54.9 0.00 0.0000000 54.4
2021-04-17 22:55:00 43.5 47.4 24.8 40.2 43.5 5.6 7.4 5.7 54.7 60.1 0.00 0.0000000 54.4
2021-04-17 23:00:00 43.5 47.5 24.9 39.7 43.5 6.3 7.1 5.8 61.2 65.0 0.00 0.0000000 54.3
2021-04-17 23:05:00 43.5 47.6 24.9 40.4 43.5 5.3 7.2 6.0 62.0 62.2 0.00 0.0000000 54.2
2021-04-17 23:10:00 43.4 47.8 24.9 40.9 43.4 4.4 6.7 5.4 65.4 54.9 0.00 0.0000000 54.2
2021-04-17 23:15:00 43.4 48.0 25.0 40.5 43.4 4.9 6.5 5.0 41.0 54.3 0.00 0.0000000 54.2
2021-04-17 23:20:00 43.3 48.0 24.9 40.9 43.3 4.2 5.8 4.6 57.7 48.4 0.00 0.0000000 54.1
2021-04-17 23:25:00 43.3 48.0 24.9 40.5 43.3 4.7 6.2 4.6 40.2 43.9 0.00 0.0000000 54.1
2021-04-17 23:30:00 43.3 48.0 25.0 39.9 43.3 5.6 7.4 5.1 43.8 48.1 0.00 0.0000000 54.0
2021-04-17 23:35:00 43.3 47.9 24.9 40.1 43.3 5.5 6.5 5.1 37.0 46.9 0.00 0.0000000 53.9
2021-04-17 23:40:00 43.3 48.3 25.0 40.6 43.3 4.6 7.1 5.0 62.7 51.2 0.00 0.0000000 53.9
2021-04-17 23:45:00 43.3 48.2 25.0 39.8 43.3 5.8 7.4 5.7 34.8 53.1 0.00 0.0000000 53.8
2021-04-17 23:50:00 43.3 48.4 25.1 39.9 43.3 5.6 6.9 5.2 53.3 56.4 0.00 0.0000000 53.8
2021-04-17 23:55:00 43.3 48.4 25.1 40.4 43.3 4.9 7.2 5.3 58.4 59.6 0.00 0.0000000 53.7
2021-04-18 00:00:00 43.3 48.3 25.1 40.1 43.3 5.3 8.0 6.1 56.5 57.9 0.00 0.0000000 53.7
2021-04-18 00:05:00 43.2 48.6 25.1 38.9 43.2 7.1 10.3 6.6 51.2 57.7 0.00 0.0000000 53.6
2021-04-18 00:10:00 43.0 48.7 25.0 38.4 43.0 7.8 8.8 7.0 38.9 53.6 0.00 0.0000000 53.6
2021-04-18 00:15:00 42.9 49.3 25.2 39.7 42.9 5.3 7.1 5.8 55.9 58.7 0.00 0.0000000 53.5
2021-04-18 00:20:00 42.9 49.4 25.3 39.4 42.9 5.6 8.0 6.0 54.6 53.8 0.00 0.0000000 53.5
2021-04-18 00:25:00 42.9 49.6 25.4 38.7 42.9 6.9 7.4 6.1 49.5 52.4 0.00 0.0000000 53.5
2021-04-18 00:30:00 42.9 49.8 25.4 39.6 42.9 5.5 7.1 5.4 59.9 53.1 0.00 0.0000000 53.4
2021-04-18 00:35:00 42.9 49.8 25.4 39.7 42.9 5.3 7.4 5.9 33.9 54.3 0.00 0.0000000 53.4
2021-04-18 00:40:00 42.8 49.8 25.3 38.5 42.8 6.9 6.9 5.7 64.8 56.3 0.00 0.0000000 53.3
2021-04-18 00:45:00 42.7 49.8 25.3 39.1 42.7 5.8 6.7 5.7 50.4 52.8 0.00 0.0000000 53.3
2021-04-18 00:50:00 42.6 49.8 25.1 39.3 42.6 5.3 6.5 5.5 57.5 52.8 0.00 0.0000000 53.2
2021-04-18 00:55:00 42.5 49.7 25.0 38.8 42.5 6.0 8.0 5.6 53.6 53.2 0.00 0.0000000 53.2
2021-04-18 01:00:00 42.5 49.7 25.0 40.2 42.5 4.0 5.8 4.3 54.2 49.7 0.00 0.0000000 53.1
2021-04-18 01:05:00 42.5 49.8 25.1 40.9 42.5 3.3 5.6 4.3 35.5 46.5 0.00 0.0000000 53.1
2021-04-18 01:10:00 42.5 49.8 25.0 39.7 42.5 4.6 5.5 4.3 57.6 50.0 0.00 0.0000000 53.0
2021-04-18 01:15:00 42.5 49.9 25.1 41.1 42.5 3.1 5.5 4.0 54.7 46.3 0.00 0.0000000 53.0
2021-04-18 01:20:00 42.5 50.0 25.2 40.7 42.5 3.5 4.6 3.5 41.8 43.5 0.00 0.0000000 53.0
2021-04-18 01:25:00 42.4 50.0 25.1 40.6 42.4 3.5 4.6 3.7 20.3 44.4 0.00 0.0000000 52.9
2021-04-18 01:30:00 42.4 50.4 25.3 42.4 42.4 1.0 3.3 2.2 21.2 35.9 0.00 0.0000000 52.9
2021-04-18 01:35:00 42.2 50.6 25.1 40.3 42.2 3.5 4.4 2.7 40.4 35.0 0.00 0.0000000 52.8
2021-04-18 01:40:00 41.8 50.7 24.9 39.4 41.8 4.0 5.6 3.8 32.7 44.6 0.00 0.0000000 52.8
2021-04-18 01:45:00 41.5 51.3 24.9 39.0 41.5 4.0 5.6 4.4 72.7 49.2 0.00 0.0000000 52.8
2021-04-18 01:50:00 41.2 52.0 24.9 41.2 41.2 2.8 4.7 3.3 38.4 48.8 0.00 0.0000000 52.7
2021-04-18 01:55:00 40.9 52.9 25.0 38.5 40.9 3.8 3.8 2.7 19.4 42.7 0.00 0.0000000 52.6
2021-04-18 02:00:00 40.7 53.4 25.1 40.7 40.7 2.2 3.5 2.4 47.5 33.1 0.00 0.0000000 52.6
2021-04-18 02:05:00 40.5 53.7 25.0 40.5 40.5 1.7 2.6 1.9 4.5 1.8 0.00 0.0000000 52.5
2021-04-18 02:10:00 40.2 54.1 24.9 40.2 40.2 1.9 2.2 1.8 336.8 348.9 0.00 0.0000000 52.5
2021-04-18 02:15:00 40.0 54.8 25.0 40.0 40.0 2.2 2.2 1.9 327.2 342.9 0.00 0.0000000 52.4
2021-04-18 02:20:00 39.7 54.9 24.8 39.7 39.7 2.4 3.5 2.6 347.5 349.1 0.00 0.0000000 52.3
2021-04-18 02:25:00 39.5 55.4 24.9 39.5 39.5 2.6 3.1 2.4 18.4 357.9 0.00 0.0000000 52.3
2021-04-18 02:30:00 39.4 55.6 24.8 39.4 39.4 2.6 3.0 2.3 330.0 347.9 0.00 0.0000000 52.2
2021-04-18 02:35:00 39.2 56.2 24.9 39.2 39.2 3.0 3.7 2.9 329.8 350.3 0.00 0.0000000 52.1
2021-04-18 02:40:00 39.1 56.5 24.9 36.6 39.1 3.7 4.2 3.2 0.0 7.2 0.00 0.0000000 52.0
2021-04-18 02:45:00 39.0 56.7 24.9 36.1 39.0 4.0 4.4 3.3 27.9 7.2 0.00 0.0000000 52.0
2021-04-18 02:50:00 39.0 57.1 25.1 35.5 39.0 4.7 4.7 3.2 49.9 19.1 0.00 0.0000000 51.9
2021-04-18 02:55:00 39.2 56.6 25.0 37.3 39.2 3.1 4.9 3.1 33.1 26.7 0.00 0.0000000 51.8
2021-04-18 03:00:00 39.2 56.6 25.1 36.9 39.2 3.5 3.8 3.2 30.4 38.8 0.00 0.0000000 51.7
2021-04-18 03:05:00 39.2 56.6 25.1 35.5 39.2 5.1 6.3 4.8 55.2 48.1 0.00 0.0000000 51.7
2021-04-18 03:10:00 39.4 56.3 25.1 36.4 39.4 4.2 5.1 4.4 43.8 48.1 0.00 0.0000000 51.6
2021-04-18 03:15:00 39.2 56.7 25.1 36.6 39.2 3.8 4.9 3.4 38.2 45.7 0.00 0.0000000 51.6
2021-04-18 03:20:00 39.2 56.7 25.1 36.4 39.2 4.0 5.3 4.2 47.2 50.0 0.00 0.0000000 51.5
2021-04-18 03:25:00 39.4 56.5 25.2 37.1 39.4 3.5 5.8 4.1 51.5 47.2 0.00 0.0000000 51.4
2021-04-18 03:30:00 39.1 56.7 25.0 39.1 39.1 1.7 4.4 2.7 142.9 61.7 0.00 0.0000000 51.4
2021-04-18 03:35:00 38.3 58.7 25.1 36.0 38.3 3.3 3.8 2.1 229.0 221.2 0.00 0.0000000 51.3
2021-04-18 03:40:00 37.3 60.2 24.8 37.3 37.3 0.0 3.5 1.7 267.0 242.2 0.00 0.0000000 51.2
2021-04-18 03:45:00 38.0 59.1 25.0 38.0 38.0 1.9 5.1 1.9 58.4 202.4 0.00 0.0000000 51.2
2021-04-18 03:50:00 38.0 58.9 24.9 38.0 38.0 1.2 2.6 1.6 0.2 109.0 0.00 0.0000000 51.1
2021-04-18 03:55:00 38.2 59.0 25.1 38.2 38.2 0.0 1.7 0.7 327.4 8.3 0.00 0.0000000 51.1
2021-04-18 04:00:00 37.6 60.0 25.0 37.6 37.6 3.0 3.0 2.3 245.8 258.2 0.00 0.0000000 51.0
2021-04-18 04:05:00 37.6 60.2 25.1 37.6 37.6 1.7 3.0 2.4 234.0 233.7 0.00 0.0000000 50.9
2021-04-18 04:10:00 37.5 60.8 25.2 37.5 37.5 2.2 2.4 2.0 225.3 229.2 0.00 0.0000000 50.9
2021-04-18 04:15:00 37.5 60.6 25.1 37.5 37.5 1.7 2.2 2.0 252.1 236.4 0.00 0.0000000 50.8
2021-04-18 04:20:00 36.9 61.5 24.9 36.9 36.9 2.1 2.1 1.9 220.6 243.7 0.00 0.0000000 50.7
2021-04-18 04:25:00 36.2 62.4 24.6 36.2 36.2 1.5 2.6 2.0 155.4 184.8 0.00 0.0000000 50.6
2021-04-18 04:30:00 35.7 64.2 24.8 35.7 35.7 0.0 1.7 0.7 146.6 157.0 0.00 0.0000000 50.5
2021-04-18 04:35:00 35.7 65.2 25.1 35.7 35.7 1.3 1.3 0.6 219.0 226.9 0.00 0.0000000 50.5
2021-04-18 04:40:00 36.0 64.6 25.2 36.0 36.0 0.0 1.5 1.0 262.0 219.1 0.00 0.0000000 50.3
2021-04-18 04:45:00 36.7 63.0 25.3 36.7 36.7 1.9 2.1 1.5 281.4 261.2 0.00 0.0000000 50.3
2021-04-18 04:50:00 36.9 62.2 25.2 36.9 36.9 1.9 2.1 1.9 295.9 288.3 0.00 0.0000000 50.2
2021-04-18 04:55:00 36.9 61.8 25.1 36.9 36.9 2.6 2.6 2.2 259.3 276.0 0.00 0.0000000 50.1
2021-04-18 05:00:00 36.7 62.3 25.0 34.4 36.7 3.1 3.1 2.8 244.5 255.6 0.00 0.0000000 50.0
2021-04-18 05:05:00 35.9 63.5 24.7 33.1 35.9 3.5 3.7 3.3 262.8 254.4 0.00 0.0000000 49.9
2021-04-18 05:10:00 35.3 65.2 24.8 31.9 35.3 4.0 4.2 3.8 267.1 264.6 0.00 0.0000000 49.8
2021-04-18 05:15:00 34.5 66.2 24.4 31.5 34.5 3.5 4.7 4.1 268.9 266.0 0.00 0.0000000 49.7
2021-04-18 05:20:00 34.1 68.7 24.9 34.1 34.1 2.2 3.5 3.0 252.0 251.1 0.00 0.0000000 49.6
2021-04-18 05:25:00 34.2 66.9 24.4 34.2 34.2 0.0 2.8 1.3 175.8 224.3 0.00 0.0000000 49.6
2021-04-18 05:30:00 34.2 67.4 24.6 34.2 34.2 2.6 3.0 1.7 274.1 255.3 0.00 0.0000000 49.5
2021-04-18 05:35:00 34.4 67.2 24.6 31.8 34.4 3.1 3.3 2.9 275.2 276.8 0.00 0.0000000 49.4
2021-04-18 05:40:00 34.1 67.5 24.5 30.7 34.1 3.8 3.8 3.5 276.8 270.7 0.00 0.0000000 49.3
2021-04-18 05:45:00 33.7 68.1 24.3 30.6 33.7 3.5 4.2 3.6 282.7 280.7 0.00 0.0000000 49.2
2021-04-18 05:50:00 34.0 67.8 24.4 34.0 34.0 2.4 3.3 2.9 278.9 285.3 0.00 0.0000000 49.1
2021-04-18 05:55:00 34.1 67.6 24.5 34.1 34.1 2.2 2.6 2.3 272.6 284.1 0.00 0.0000000 49.0
2021-04-18 06:00:00 34.2 67.0 24.4 34.2 34.2 1.7 2.2 1.8 268.9 284.6 0.00 0.0000000 48.9
2021-04-18 06:05:00 34.1 67.1 24.3 34.1 34.1 2.2 2.2 1.8 290.6 287.4 0.00 0.0000000 48.9
2021-04-18 06:10:00 34.4 67.0 24.5 34.4 34.4 2.4 3.0 2.5 275.1 281.6 0.00 0.0000000 48.8
2021-04-18 06:15:00 34.3 67.2 24.5 34.3 34.3 2.1 2.8 2.3 288.5 280.0 0.00 0.0000196 48.7
2021-04-18 06:20:00 34.4 67.3 24.6 34.4 34.4 1.3 2.2 1.7 289.2 291.9 0.00 0.0005044 48.6
2021-04-18 06:25:00 34.4 67.4 24.7 34.4 34.4 1.3 1.7 1.3 293.3 295.0 0.00 0.0034250 48.5
2021-04-18 06:30:00 34.4 67.0 24.5 34.4 34.4 1.9 1.9 1.6 278.8 274.5 0.00 0.0084427 48.5
2021-04-18 06:35:00 34.2 67.0 24.4 34.2 34.2 1.5 1.9 1.6 269.1 270.3 0.00 0.0135268 48.4
2021-04-18 06:40:00 34.1 67.1 24.3 31.5 34.1 3.1 3.1 1.8 236.8 248.2 0.00 0.0178056 48.3
2021-04-18 06:45:00 34.0 67.0 24.2 34.0 34.0 2.1 3.1 2.4 232.1 231.6 0.00 0.0224654 48.2
2021-04-18 06:50:00 34.1 66.9 24.2 34.1 34.1 2.6 3.3 2.5 203.8 213.6 0.00 0.0271530 48.2
2021-04-18 06:55:00 34.7 66.0 24.5 34.7 34.7 1.5 2.8 1.9 163.0 193.5 0.00 0.0313796 48.1
2021-04-18 07:00:00 35.2 64.8 24.6 35.2 35.2 0.8 1.7 1.0 118.9 154.6 0.00 0.0355817 48.0
2021-04-18 07:05:00 36.3 62.6 24.8 36.3 36.3 0.0 1.2 0.1 277.0 118.1 0.00 0.0402321 48.0
2021-04-18 07:10:00 37.1 60.9 24.8 37.1 37.1 0.0 0.0 0.0 277.2 0.0 0.00 0.0443271 47.9
2021-04-18 07:15:00 37.1 60.6 24.7 37.1 37.1 1.7 1.7 1.0 200.8 216.9 0.00 0.0491678 47.9
2021-04-18 07:20:00 37.1 60.7 24.7 37.1 37.1 2.4 2.4 1.9 256.7 225.1 0.00 0.0546641 47.9
2021-04-18 07:25:00 37.1 61.2 24.9 34.2 37.1 3.7 4.2 3.1 257.1 254.1 0.00 0.0605298 47.9
2021-04-18 07:30:00 38.0 60.2 25.4 34.5 38.0 4.6 5.6 4.3 255.0 257.7 0.00 0.0668258 47.9
2021-04-18 07:35:00 38.8 58.3 25.4 35.3 38.8 4.7 6.2 5.1 257.4 262.7 0.00 0.0722728 47.9
2021-04-18 07:40:00 39.7 57.0 25.8 36.2 39.7 4.9 5.8 4.7 276.8 269.9 0.00 0.0770086 48.0
2021-04-18 07:45:00 40.6 55.0 25.7 36.8 40.6 5.5 5.5 4.5 289.3 286.3 0.00 0.0815009 48.0
2021-04-18 07:50:00 41.0 54.4 25.8 38.6 41.0 3.8 5.8 4.4 282.8 286.3 0.00 0.0872275 48.1
2021-04-18 07:55:00 41.3 53.8 25.8 38.2 41.3 4.7 5.3 3.7 299.0 301.0 0.00 0.0886319 48.1
2021-04-18 08:00:00 41.8 53.5 26.2 39.2 41.8 4.2 4.9 4.0 258.3 290.9 0.00 0.0976072 48.2
2021-04-18 08:05:00 42.4 52.3 26.2 39.4 42.4 4.9 4.9 4.0 307.2 266.5 0.00 0.1035779 48.3
2021-04-18 08:10:00 42.6 51.7 26.0 39.4 42.6 5.1 6.9 4.8 235.2 260.0 0.00 0.1052645 48.4
2021-04-18 08:15:00 42.9 51.4 26.2 38.7 42.9 6.9 7.6 5.2 275.9 253.7 0.00 0.1125735 48.5
2021-04-18 08:20:00 43.2 50.4 26.0 39.5 43.2 6.0 7.2 5.0 257.0 253.6 0.00 0.1175513 48.7
2021-04-18 08:25:00 43.7 49.8 26.2 41.6 43.7 4.0 6.3 4.5 246.6 268.7 0.00 0.1214635 48.8
2021-04-18 08:30:00 43.8 49.6 26.2 40.9 43.8 5.1 6.5 4.9 252.5 269.4 0.00 0.1271996 48.9
2021-04-18 08:35:00 44.1 48.7 26.0 40.9 44.1 5.5 6.3 4.9 281.9 258.3 0.00 0.1334484 49.1
2021-04-18 08:40:00 44.4 48.0 25.9 39.9 44.4 8.0 8.0 5.1 267.3 266.5 0.00 0.1388963 49.2
2021-04-18 08:45:00 45.0 47.5 26.2 42.1 45.0 5.3 7.8 5.9 261.5 273.0 0.00 0.1445573 49.5
2021-04-18 08:50:00 45.1 46.0 25.6 41.5 45.1 6.7 8.7 6.4 284.7 284.6 0.00 0.1500228 49.6
2021-04-18 08:55:00 45.1 46.0 25.5 41.5 45.1 6.5 8.0 5.6 270.8 280.2 0.00 0.1550251 49.9
2021-04-18 09:00:00 45.4 45.4 25.5 44.0 45.4 3.5 9.2 6.7 265.2 276.3 0.00 0.1603573 50.1
2021-04-18 09:05:00 45.6 45.4 25.7 41.0 45.6 8.8 9.4 6.1 282.8 291.1 0.00 0.1658093 50.3
2021-04-18 09:10:00 46.2 44.5 25.8 45.2 46.2 3.1 9.2 5.6 252.9 283.1 0.00 0.1712008 50.6
2021-04-18 09:15:00 46.9 43.5 25.9 43.6 46.9 6.7 7.8 4.5 305.7 267.1 0.00 0.1766109 50.8
2021-04-18 09:20:00 46.8 42.9 25.4 46.8 46.8 2.2 9.2 5.2 288.0 303.1 0.00 0.1819752 51.1
2021-04-18 09:25:00 47.3 41.8 25.3 45.2 47.3 4.7 8.5 5.5 298.1 275.7 0.00 0.1876230 51.4
2021-04-18 09:30:00 46.9 42.6 25.4 44.9 46.9 4.6 8.8 6.1 324.4 320.9 0.00 0.1935443 51.7
2021-04-18 09:35:00 47.3 42.2 25.4 46.3 47.3 3.3 8.5 5.2 329.0 333.9 0.00 0.2004611 52.0
2021-04-18 09:40:00 48.2 41.3 25.7 44.7 48.2 7.6 8.7 5.8 316.1 300.7 0.00 0.2000430 52.3
2021-04-18 09:45:00 48.3 40.5 25.3 46.8 48.3 4.0 9.0 4.3 317.6 335.3 0.00 0.1966918 52.6
2021-04-18 09:50:00 49.1 39.5 25.5 46.3 49.1 6.5 9.2 5.7 291.4 325.3 0.00 0.2070693 52.9
2021-04-18 09:55:00 48.7 39.3 25.0 45.7 48.7 6.9 11.0 7.4 296.5 296.5 0.00 0.2077229 53.2
2021-04-18 10:00:00 48.9 38.8 24.9 46.9 48.9 4.9 10.6 7.0 11.0 332.6 0.00 0.2115353 53.5
2021-04-18 10:05:00 48.9 38.0 24.4 45.3 48.9 8.3 9.6 6.6 292.5 326.4 0.00 0.2287846 53.9
2021-04-18 10:10:00 49.2 38.1 24.8 45.4 49.2 9.0 9.4 5.6 300.9 276.3 0.00 0.2306830 54.2
2021-04-18 10:15:00 49.2 38.1 24.7 46.9 49.2 5.6 9.6 7.3 255.0 281.0 0.00 0.2280592 54.5
2021-04-18 10:20:00 49.8 36.4 24.2 46.7 49.8 7.6 11.5 5.9 345.1 283.9 0.00 0.2382109 54.8
2021-04-18 10:25:00 49.4 37.4 24.5 46.1 49.4 7.8 9.6 7.1 295.5 311.1 0.00 0.2419756 55.2
2021-04-18 10:30:00 50.2 36.5 24.6 50.2 50.2 8.3 9.6 7.3 287.8 314.1 0.00 0.2458959 55.5
2021-04-18 10:35:00 50.1 37.0 24.8 50.1 50.1 1.7 8.8 4.4 343.1 306.4 0.00 0.2489630 55.8
2021-04-18 10:40:00 50.5 36.5 24.8 50.5 50.5 3.5 9.9 4.4 336.4 321.0 0.00 0.2523466 56.2
2021-04-18 10:45:00 51.2 34.2 23.9 51.2 51.2 7.4 11.7 7.5 339.1 343.1 0.00 0.2563530 56.5
2021-04-18 10:50:00 50.8 35.1 24.2 50.8 50.8 3.1 9.2 5.5 337.5 342.5 0.00 0.2598063 56.9
2021-04-18 10:55:00 51.7 35.5 25.3 51.7 51.7 5.1 11.9 7.9 302.7 301.2 0.00 0.2636232 57.2
2021-04-18 11:00:00 53.1 33.5 25.1 53.1 53.1 6.7 9.9 5.1 1.7 290.0 0.00 0.2664231 57.6
2021-04-18 11:05:00 52.2 32.8 23.8 52.2 52.2 8.8 10.3 6.7 303.8 333.3 0.00 0.2695730 58.0
2021-04-18 11:10:00 52.4 33.3 24.4 52.4 52.4 11.7 15.3 6.4 309.9 310.9 0.00 0.2726553 58.4
2021-04-18 11:15:00 51.2 33.7 23.6 51.2 51.2 4.4 12.1 9.1 323.0 311.2 0.00 0.2754506 58.7
2021-04-18 11:20:00 51.7 33.8 24.0 51.7 51.7 5.6 11.5 7.7 274.5 312.4 0.00 0.2783831 59.0
2021-04-18 11:25:00 52.5 33.0 24.2 52.5 52.5 4.7 5.5 3.7 276.4 336.3 0.00 0.2803028 59.4
2021-04-18 11:30:00 52.2 31.0 22.5 52.2 52.2 7.2 9.6 5.9 276.2 331.1 0.00 0.2830844 59.8
2021-04-18 11:35:00 52.1 31.4 22.6 52.1 52.1 3.5 6.3 4.6 266.5 277.7 0.00 0.2850426 60.1
2021-04-18 11:40:00 52.4 31.6 23.1 52.4 52.4 6.2 11.3 6.9 260.3 283.9 0.00 0.2868575 60.5
2021-04-18 11:45:00 52.5 29.8 21.8 52.5 52.5 8.5 11.3 7.9 340.6 308.9 0.00 0.2892643 60.8
2021-04-18 11:50:00 53.8 29.0 22.3 53.8 53.8 7.2 8.3 5.5 1.6 354.7 0.00 0.2917211 61.2
2021-04-18 11:55:00 53.2 28.6 21.4 53.2 53.2 5.6 10.6 6.8 329.2 318.3 0.00 0.2935335 61.6
2021-04-18 12:00:00 53.5 28.7 21.8 53.5 53.5 6.2 7.4 3.4 335.7 29.0 0.00 0.2946171 61.9
2021-04-18 12:05:00 54.6 28.5 22.5 54.6 54.6 14.9 22.6 7.6 18.9 331.9 0.00 0.2963808 62.3
2021-04-18 12:10:00 54.4 29.5 23.2 54.4 54.4 3.7 9.4 5.6 286.8 358.2 0.00 0.2970141 62.6
2021-04-18 12:15:00 54.4 26.7 20.8 54.4 54.4 6.0 11.9 7.2 298.6 300.3 0.00 0.2982441 63.0
2021-04-18 12:20:00 54.0 25.7 19.6 54.0 54.0 8.3 9.9 7.5 269.2 293.0 0.00 0.2999301 63.3
2021-04-18 12:25:00 53.5 23.6 17.1 53.5 53.5 3.5 9.7 6.0 302.9 282.5 0.00 0.3018635 63.7
2021-04-18 12:30:00 54.4 25.8 20.0 54.4 54.4 5.6 6.7 4.5 61.1 327.3 0.00 0.3021115 64.0
2021-04-18 12:35:00 54.3 25.7 19.9 54.3 54.3 2.8 9.0 6.8 262.7 287.8 0.00 0.3030028 64.3
2021-04-18 12:40:00 54.5 24.0 18.4 54.5 54.5 6.9 9.6 4.4 265.0 278.1 0.00 0.3034892 64.7
2021-04-18 12:45:00 54.4 22.7 17.1 54.4 54.4 7.1 10.8 7.3 0.3 317.3 0.00 0.3039621 65.0
2021-04-18 12:50:00 55.2 23.2 18.2 55.2 55.2 3.7 6.5 3.6 77.6 84.0 0.00 0.3035872 65.3
2021-04-18 12:55:00 55.2 24.0 19.1 55.2 55.2 5.3 7.6 5.3 6.1 104.2 0.00 0.3034015 65.7
2021-04-18 13:00:00 56.5 22.6 18.7 56.5 56.5 6.7 8.8 6.2 2.6 1.8 0.00 0.3033061 65.9
2021-04-18 13:05:00 56.6 23.0 19.2 56.6 56.6 7.4 7.4 4.0 291.0 326.1 0.00 0.3032310 66.3
2021-04-18 13:10:00 57.0 22.8 19.3 57.0 57.0 4.6 6.9 4.2 297.9 329.8 0.00 0.3031680 66.6
2021-04-18 13:15:00 56.7 22.7 18.9 56.7 56.7 5.6 10.1 7.4 334.7 339.0 0.00 0.3017932 66.9
2021-04-18 13:20:00 57.3 23.0 19.9 57.3 57.3 4.2 5.3 2.6 322.8 44.8 0.00 0.3003260 67.2
2021-04-18 13:25:00 57.8 22.2 19.3 57.8 57.8 10.8 10.8 6.5 314.2 278.2 0.00 0.3000940 67.4
2021-04-18 13:30:00 57.4 23.3 20.2 57.4 57.4 6.9 10.6 8.1 250.3 282.2 0.00 0.2994257 67.7
2021-04-18 13:35:00 57.3 22.4 19.1 57.3 57.3 8.1 12.1 8.2 283.6 303.9 0.00 0.2978243 68.0
2021-04-18 13:40:00 56.9 22.5 18.9 56.9 56.9 5.8 12.2 6.7 330.9 325.2 0.00 0.2962789 68.3
2021-04-18 13:45:00 57.0 22.2 18.7 57.0 57.0 7.2 13.5 8.7 260.1 294.3 0.00 0.2944639 68.6
2021-04-18 13:50:00 57.6 22.3 19.3 57.6 57.6 2.4 9.9 5.9 331.0 302.5 0.00 0.2932835 68.8
2021-04-18 13:55:00 57.9 21.2 18.3 57.9 57.9 2.4 6.7 4.3 266.2 252.5 0.00 0.2910521 69.1
2021-04-18 14:00:00 58.4 21.7 19.3 58.4 58.4 2.6 4.9 3.3 179.8 193.6 0.00 0.2881212 69.3
2021-04-18 14:05:00 58.5 21.6 19.3 58.5 58.5 6.3 8.8 5.3 349.2 336.7 0.00 0.2864229 69.6
2021-04-18 14:10:00 59.5 20.3 18.7 59.5 59.5 6.7 8.5 6.0 20.3 344.8 0.00 0.2844028 69.8
2021-04-18 14:15:00 58.7 21.1 18.9 58.7 58.7 6.2 9.7 5.7 328.9 352.9 0.00 0.2818137 70.0
2021-04-18 14:20:00 59.3 20.4 18.7 59.3 59.3 7.8 11.0 5.3 36.7 19.8 0.00 0.2796138 70.3
2021-04-18 14:25:00 59.4 21.0 19.4 59.4 59.4 4.2 7.2 4.7 0.0 44.9 0.00 0.2772522 70.4
2021-04-18 14:30:00 58.8 21.8 19.7 58.8 58.8 3.1 7.6 4.2 303.1 1.1 0.00 0.2749287 70.7
2021-04-18 14:35:00 58.8 21.9 19.9 58.8 58.8 9.7 9.7 5.9 320.4 271.8 0.00 0.2719343 70.8
2021-04-18 14:40:00 58.1 22.2 19.6 58.1 58.1 2.4 11.5 7.1 329.0 322.2 0.00 0.2684029 71.0
2021-04-18 14:45:00 59.3 21.3 19.7 59.3 59.3 4.2 7.8 4.2 286.3 314.4 0.00 0.2654598 71.2
2021-04-18 14:50:00 59.6 21.0 19.5 59.6 59.6 2.2 9.0 5.3 153.9 216.2 0.00 0.2618092 71.4
2021-04-18 14:55:00 61.2 20.0 19.8 61.2 61.2 4.2 7.6 4.0 337.6 27.0 0.00 0.2590090 71.5
2021-04-18 15:00:00 59.8 20.0 18.7 59.8 59.8 8.8 9.0 5.4 308.8 357.4 0.00 0.2551337 71.7
2021-04-18 15:05:00 58.6 20.7 18.4 58.6 58.6 6.7 13.5 8.1 288.5 304.2 0.00 0.2522909 71.9
2021-04-18 15:10:00 58.3 20.1 17.5 58.3 58.3 3.3 10.8 5.9 337.2 297.8 0.00 0.2485341 72.0
2021-04-18 15:15:00 60.4 18.8 17.7 60.4 60.4 4.7 7.6 5.0 337.5 345.3 0.00 0.2449924 72.1
2021-04-18 15:20:00 60.2 19.6 18.5 60.2 60.2 5.6 7.1 3.7 248.7 24.6 0.00 0.2403184 72.3
2021-04-18 15:25:00 59.9 19.7 18.3 59.9 59.9 1.7 8.8 4.1 228.4 206.2 0.00 0.2367312 72.4
2021-04-18 15:30:00 60.9 19.1 18.4 60.9 60.9 2.1 5.8 3.6 2.1 344.1 0.00 0.2330169 72.4
2021-04-18 15:35:00 61.2 19.0 18.6 61.2 61.2 3.5 6.5 3.4 334.7 3.2 0.00 0.2286807 72.5
2021-04-18 15:40:00 60.0 19.2 17.8 60.0 60.0 3.8 4.6 3.7 6.7 330.6 0.00 0.2244769 72.6
2021-04-18 15:45:00 60.9 19.6 19.0 60.9 60.9 2.2 5.3 3.1 0.2 20.8 0.00 0.2199532 72.7
2021-04-18 15:50:00 61.7 18.1 17.8 61.7 61.7 5.6 8.0 3.9 315.5 327.9 0.00 0.2162240 72.8
2021-04-18 15:55:00 60.2 17.9 16.4 60.2 60.2 2.6 7.6 5.2 231.6 352.0 0.00 0.2116787 72.8
2021-04-18 16:00:00 61.3 18.1 17.5 61.3 61.3 6.0 7.6 4.4 341.7 323.8 0.00 0.2075628 72.8
2021-04-18 16:05:00 60.7 19.5 18.8 60.7 60.7 4.6 6.7 4.0 278.8 294.0 0.00 0.2029653 72.8
2021-04-18 16:10:00 60.3 18.2 16.8 60.3 60.3 3.3 9.6 6.2 271.7 320.0 0.00 0.1988038 72.7
2021-04-18 16:15:00 61.4 17.8 17.2 61.4 61.4 7.4 9.9 5.0 309.1 295.8 0.00 0.1937857 72.7
2021-04-18 16:20:00 61.4 18.6 18.2 61.4 61.4 8.8 11.0 7.0 2.5 326.1 0.00 0.1892931 72.6
2021-04-18 16:25:00 60.2 18.7 17.4 60.2 60.2 8.3 9.2 6.8 323.2 321.4 0.00 0.1846779 72.4
2021-04-18 16:30:00 60.4 18.3 17.0 60.4 60.4 3.8 8.1 5.6 311.5 329.4 0.00 0.1790463 72.3
2021-04-18 16:35:00 60.4 18.3 17.0 60.4 60.4 6.2 7.4 5.5 329.0 319.5 0.00 0.1739283 72.2
2021-04-18 16:40:00 60.9 18.4 17.5 60.9 60.9 3.1 6.0 3.8 56.3 342.3 0.00 0.1685431 72.1
2021-04-18 16:45:00 61.0 17.9 17.0 61.0 61.0 6.0 6.0 3.9 5.0 321.7 0.00 0.1635792 72.0
2021-04-18 16:50:00 60.7 17.6 16.5 60.7 60.7 2.1 5.8 3.4 247.2 287.5 0.00 0.1569963 71.9
2021-04-18 16:55:00 61.3 18.0 17.4 61.3 61.3 5.3 6.7 4.4 0.4 28.6 0.00 0.1524709 71.9
2021-04-18 17:00:00 61.4 18.7 18.4 61.4 61.4 4.2 6.7 4.1 221.5 324.1 0.00 0.1476606 71.8
2021-04-18 17:05:00 62.1 18.5 18.6 62.1 62.1 4.7 4.7 2.8 3.5 277.3 0.00 0.1426900 71.7
2021-04-18 17:10:00 62.0 18.3 18.4 62.0 62.0 6.2 7.1 4.5 97.2 80.6 0.00 0.1370452 71.6
2021-04-18 17:15:00 60.6 18.6 17.5 60.6 60.6 1.7 8.7 4.9 190.9 67.8 0.00 0.1311841 71.6
2021-04-18 17:20:00 60.7 18.7 17.8 60.7 60.7 5.3 7.6 5.8 89.8 144.9 0.00 0.1259977 71.5
2021-04-18 17:25:00 61.0 17.9 17.0 61.0 61.0 6.3 8.1 5.5 149.9 115.6 0.00 0.1209498 71.5
2021-04-18 17:30:00 60.3 18.5 17.2 60.3 60.3 7.4 8.5 5.9 151.0 159.4 0.00 0.1155363 71.4
2021-04-18 17:35:00 60.4 18.4 17.2 60.4 60.4 8.8 9.2 6.1 104.0 143.3 0.00 0.1111289 71.3
2021-04-18 17:40:00 60.3 18.4 17.1 60.3 60.3 1.3 10.5 3.7 80.1 111.8 0.00 0.1053840 71.2
2021-04-18 17:45:00 61.0 17.6 16.6 61.0 61.0 1.3 3.8 1.9 40.7 123.4 0.00 0.0991660 71.1
2021-04-18 17:50:00 61.5 17.1 16.4 61.5 61.5 0.0 3.1 1.6 86.4 37.3 0.00 0.0937972 71.0
2021-04-18 17:55:00 61.0 17.5 16.5 61.0 61.0 3.3 3.7 2.4 153.4 96.1 0.00 0.0885134 70.9
2021-04-18 18:00:00 60.2 17.5 15.9 60.2 60.2 2.1 9.7 4.6 42.1 88.7 0.00 0.0834651 70.8
2021-04-18 18:05:00 60.5 16.9 15.3 60.5 60.5 4.7 5.8 3.1 48.7 58.6 0.00 0.0783544 70.6
2021-04-18 18:10:00 60.5 17.0 15.5 60.5 60.5 2.1 4.4 2.9 87.6 53.2 0.00 0.0723608 70.5
2021-04-18 18:15:00 60.7 16.8 15.3 60.7 60.7 3.5 3.8 2.8 44.1 84.9 0.00 0.0681544 70.4
2021-04-18 18:20:00 60.2 17.6 16.0 60.2 60.2 2.8 6.3 3.5 127.1 63.8 0.00 0.0633823 70.2
2021-04-18 18:25:00 60.4 17.1 15.5 60.4 60.4 2.2 4.9 2.8 151.2 126.6 0.00 0.0582745 70.1
2021-04-18 18:30:00 60.7 16.9 15.5 60.7 60.7 2.2 3.0 1.7 174.2 178.7 0.00 0.0536015 69.9
2021-04-18 18:35:00 61.1 16.9 15.7 61.1 61.1 0.8 2.8 2.0 247.8 184.9 0.00 0.0490332 69.8
2021-04-18 18:40:00 60.9 17.0 15.8 60.9 60.9 3.5 5.1 2.3 12.7 86.7 0.00 0.0441031 69.6
2021-04-18 18:45:00 60.5 17.6 16.2 60.5 60.5 1.9 4.9 2.8 86.2 38.3 0.00 0.0396624 69.5
2021-04-18 18:50:00 60.3 17.6 16.0 60.3 60.3 2.6 2.8 2.3 70.6 90.9 0.00 0.0350187 69.3
2021-04-18 18:55:00 60.0 17.8 16.0 60.0 60.0 1.9 2.8 2.3 29.4 50.7 0.00 0.0295656 69.1
2021-04-18 19:00:00 60.5 17.5 16.2 60.5 60.5 0.0 1.7 0.6 86.1 17.5 0.00 0.0174051 69.0
2021-04-18 19:05:00 60.2 18.0 16.5 60.2 60.2 1.5 1.5 0.6 52.6 71.6 0.00 0.0176482 68.8
2021-04-18 19:10:00 59.2 18.4 16.1 59.2 59.2 2.6 3.0 2.0 105.9 82.8 0.00 0.0139579 68.6
2021-04-18 19:15:00 58.2 18.8 15.9 58.2 58.2 2.1 3.1 2.2 103.3 114.5 0.00 0.0133730 68.4
2021-04-18 19:20:00 58.1 19.2 16.2 58.1 58.1 2.2 2.4 1.7 137.0 106.2 0.00 0.0085167 68.2
2021-04-18 19:25:00 57.0 19.8 16.0 57.0 57.0 2.8 3.1 2.5 103.6 128.5 0.00 0.0024570 68.0
2021-04-18 19:30:00 56.6 19.9 15.8 56.6 56.6 3.3 3.5 2.9 134.9 116.8 0.00 0.0003252 67.8
2021-04-18 19:35:00 55.8 20.7 16.0 55.8 55.8 2.4 3.1 2.5 117.0 112.9 0.00 0.0000000 67.6
2021-04-18 19:40:00 55.2 20.7 15.6 55.2 55.2 3.1 4.2 3.1 133.5 122.4 0.00 0.0000000 67.4
2021-04-18 19:45:00 54.8 20.7 15.3 54.8 54.8 4.0 4.4 3.5 108.7 131.8 0.00 0.0000000 67.1
2021-04-18 19:50:00 54.8 20.6 15.0 54.8 54.8 3.0 4.9 3.3 147.2 130.9 0.00 0.0000000 66.9
2021-04-18 19:55:00 54.7 20.8 15.3 54.7 54.7 2.8 3.5 2.8 149.1 147.6 0.00 0.0000000 66.7
2021-04-18 20:00:00 54.4 21.0 15.3 54.4 54.4 2.4 3.3 3.0 139.2 146.4 0.00 0.0000000 66.5
2021-04-18 20:05:00 54.4 21.2 15.4 54.4 54.4 2.8 3.8 3.1 133.1 144.3 0.00 0.0000000 66.2
2021-04-18 20:10:00 53.9 21.5 15.4 53.9 53.9 2.2 3.5 2.8 123.6 133.2 0.00 0.0000000 66.0
2021-04-18 20:15:00 53.4 21.6 15.0 53.4 53.4 1.9 2.8 2.2 100.4 123.4 0.00 0.0000000 65.8
2021-04-18 20:20:00 52.9 22.2 15.2 52.9 52.9 2.2 2.6 2.1 110.8 106.4 0.00 0.0000000 65.6
2021-04-18 20:25:00 52.4 22.3 15.0 52.4 52.4 1.9 2.8 2.3 109.6 106.0 0.00 0.0000000 65.3
2021-04-18 20:30:00 52.2 22.3 14.8 52.2 52.2 1.5 2.8 2.1 104.6 111.0 0.00 0.0000000 65.1

Data is courtesy of the NM Climate Center. DO NOT USE IN LEGAL PROCEEDINGS.